createdAt,value
2022-10-21T00:00:06.365Z,13.44
2022-10-21T00:01:06.347Z,13.46
2022-10-21T00:02:06.345Z,13.50
2022-10-21T00:03:06.327Z,13.50
2022-10-21T00:04:06.316Z,13.44
2022-10-21T00:05:06.295Z,13.47
2022-10-21T00:06:06.288Z,13.43
2022-10-21T00:07:06.267Z,13.57
2022-10-21T00:08:06.254Z,13.59
2022-10-21T00:09:06.301Z,13.50
2022-10-21T00:10:06.237Z,13.48
2022-10-21T00:11:06.215Z,13.59
2022-10-21T00:12:06.206Z,13.57
2022-10-21T00:13:06.183Z,13.59
2022-10-21T00:14:06.193Z,13.59
2022-10-21T00:15:06.158Z,13.59
2022-10-21T00:16:06.159Z,13.62
2022-10-21T00:17:06.129Z,13.59
2022-10-21T00:18:06.120Z,13.59
2022-10-21T00:19:06.111Z,13.59
2022-10-21T00:20:06.106Z,13.57
2022-10-21T00:21:06.078Z,13.54
2022-10-21T00:22:06.062Z,13.51
2022-10-21T00:23:06.044Z,13.51
2022-10-21T00:24:06.037Z,13.53
2022-10-21T00:25:06.014Z,13.46
2022-10-21T00:26:06.025Z,13.54
2022-10-21T00:27:05.993Z,13.55
2022-10-21T00:28:05.984Z,13.62
2022-10-21T00:29:05.968Z,13.54
2022-10-21T00:30:05.972Z,13.54
2022-10-21T00:31:05.941Z,13.51
2022-10-21T00:32:05.928Z,13.53
2022-10-21T00:33:05.909Z,13.55
2022-10-21T00:34:05.900Z,13.50
2022-10-21T00:35:05.882Z,13.61
2022-10-21T00:36:05.879Z,13.61
2022-10-21T00:37:05.854Z,13.53
2022-10-21T00:38:05.844Z,13.51
2022-10-21T00:39:05.821Z,13.55
2022-10-21T00:40:05.814Z,13.59
2022-10-21T00:41:05.794Z,13.48
2022-10-21T00:42:05.789Z,13.57
2022-10-21T00:43:05.774Z,13.53
2022-10-21T00:44:05.768Z,13.62
2022-10-21T00:45:05.748Z,13.59
2022-10-21T00:46:05.753Z,13.62
2022-10-21T00:47:05.715Z,13.55
2022-10-21T00:48:05.701Z,13.57
2022-10-21T00:49:05.683Z,13.65
2022-10-21T00:50:05.695Z,13.62
2022-10-21T00:51:05.663Z,13.57
2022-10-21T00:52:05.655Z,13.55
2022-10-21T00:53:05.632Z,13.57
2022-10-21T00:54:05.621Z,13.57
2022-10-21T00:55:05.605Z,13.57
2022-10-21T00:56:05.593Z,13.47
2022-10-21T00:57:05.581Z,13.57
2022-10-21T00:58:05.574Z,13.50
2022-10-21T00:59:05.553Z,13.61
2022-10-21T01:00:05.535Z,13.53
2022-10-21T01:01:05.579Z,13.44
2022-10-21T01:02:05.532Z,13.44
2022-10-21T01:03:05.490Z,13.48
2022-10-21T01:04:05.481Z,13.43
2022-10-21T01:05:05.461Z,13.36
2022-10-21T01:06:05.457Z,13.46
2022-10-21T01:07:05.438Z,13.39
2022-10-21T01:08:05.429Z,13.47
2022-10-21T01:09:05.546Z,13.39
2022-10-21T01:10:05.401Z,13.41
2022-10-21T01:11:05.384Z,13.47
2022-10-21T01:12:05.372Z,13.46
2022-10-21T01:13:05.361Z,13.29
2022-10-21T01:14:05.343Z,13.51
2022-10-21T01:15:05.329Z,13.41
2022-10-21T01:16:05.313Z,13.47
2022-10-21T01:17:15.497Z,13.38
2022-10-21T01:18:06.326Z,13.48
2022-10-21T01:19:05.268Z,13.46
2022-10-21T01:20:05.256Z,13.39
2022-10-21T01:21:05.242Z,13.47
2022-10-21T01:22:05.237Z,13.36
2022-10-21T01:23:05.218Z,13.44
2022-10-21T01:25:05.441Z,13.48
2022-10-21T01:26:05.177Z,13.44
2022-10-21T01:27:05.157Z,13.39
2022-10-21T01:28:05.147Z,13.44
2022-10-21T01:29:05.131Z,13.53
2022-10-21T01:30:05.124Z,13.46
2022-10-21T01:31:05.107Z,13.36
2022-10-21T01:32:05.097Z,13.32
2022-10-21T01:33:05.101Z,13.44
2022-10-21T01:34:05.092Z,13.41
2022-10-21T01:35:05.049Z,13.59
2022-10-21T01:36:05.039Z,13.48
2022-10-21T01:37:05.023Z,13.54
2022-10-21T01:38:05.005Z,13.48
2022-10-21T01:39:04.989Z,13.50
2022-10-21T01:40:04.983Z,13.54
2022-10-21T01:41:04.962Z,13.43
2022-10-21T01:42:05.062Z,13.51
2022-10-21T01:43:04.932Z,13.57
2022-10-21T01:44:04.922Z,13.54
2022-10-21T01:45:04.906Z,13.53
2022-10-21T01:46:04.905Z,13.50
2022-10-21T01:47:04.889Z,13.61
2022-10-21T01:48:04.876Z,13.50
2022-10-21T01:49:04.865Z,13.51
2022-10-21T01:50:04.867Z,13.59
2022-10-21T01:51:04.823Z,13.63
2022-10-21T01:52:04.814Z,13.55
2022-10-21T01:53:04.802Z,13.61
2022-10-21T01:54:04.790Z,13.55
2022-10-21T01:55:04.773Z,13.51
2022-10-21T01:56:04.767Z,13.69
2022-10-21T01:57:04.753Z,13.65
2022-10-21T01:58:04.738Z,13.65
2022-10-21T01:59:04.721Z,13.53
2022-10-21T02:00:04.707Z,13.59
2022-10-21T02:01:04.742Z,13.57
2022-10-21T02:02:04.686Z,13.57
2022-10-21T02:03:04.664Z,13.55
2022-10-21T02:04:04.654Z,13.62
2022-10-21T02:05:04.634Z,13.46
2022-10-21T02:06:04.642Z,13.59
2022-10-21T02:07:04.607Z,13.59
2022-10-21T02:08:04.592Z,13.48
2022-10-21T02:09:04.664Z,13.48
2022-10-21T02:10:04.573Z,13.51
2022-10-21T02:11:04.552Z,13.50
2022-10-21T02:12:04.539Z,13.53
2022-10-21T02:13:04.522Z,13.51
2022-10-21T02:14:04.516Z,13.47
2022-10-21T02:15:04.493Z,13.46
2022-10-21T02:16:04.486Z,13.39
2022-10-21T02:17:04.470Z,13.39
2022-10-21T02:18:04.452Z,13.47
2022-10-21T02:19:04.436Z,13.43
2022-10-21T02:20:04.422Z,13.41
2022-10-21T02:21:04.412Z,13.41
2022-10-21T02:22:04.424Z,13.38
2022-10-21T02:23:04.384Z,13.41
2022-10-21T02:24:04.368Z,13.48
2022-10-21T02:25:04.361Z,13.50
2022-10-21T02:26:04.348Z,13.48
2022-10-21T02:27:04.329Z,13.61
2022-10-21T02:28:04.321Z,13.39
2022-10-21T02:29:04.306Z,13.43
2022-10-21T02:30:04.634Z,13.41
2022-10-21T02:31:04.270Z,13.36
2022-10-21T02:32:04.263Z,13.41
2022-10-21T02:33:04.242Z,13.41
2022-10-21T02:34:04.236Z,13.54
2022-10-21T02:35:04.218Z,13.50
2022-10-21T02:36:04.211Z,13.41
2022-10-21T02:37:04.192Z,13.41
2022-10-21T02:38:04.205Z,13.53
2022-10-21T02:39:04.163Z,13.44
2022-10-21T02:40:04.153Z,13.51
2022-10-21T02:41:04.135Z,13.43
2022-10-21T02:42:04.121Z,13.39
2022-10-21T02:43:04.107Z,13.44
2022-10-21T02:44:04.094Z,13.43
2022-10-21T02:45:04.078Z,13.31
2022-10-21T02:46:04.067Z,13.41
2022-10-21T02:47:04.084Z,13.39
2022-10-21T02:48:04.114Z,13.43
2022-10-21T02:49:04.025Z,13.35
2022-10-21T02:50:04.220Z,13.32
2022-10-21T02:51:04.005Z,13.36
2022-10-21T02:52:03.987Z,13.43
2022-10-21T02:53:03.972Z,13.32
2022-10-21T02:54:03.981Z,13.36
2022-10-21T02:55:03.944Z,13.44
2022-10-21T02:56:03.940Z,13.43
2022-10-21T02:57:03.920Z,13.28
2022-10-21T02:58:03.907Z,13.29
2022-10-21T02:59:03.893Z,13.41
2022-10-21T03:00:03.887Z,13.46
2022-10-21T03:01:03.906Z,13.29
2022-10-21T03:02:03.862Z,13.38
2022-10-21T03:03:03.846Z,13.39
2022-10-21T03:04:03.828Z,13.29
2022-10-21T03:05:03.815Z,13.24
2022-10-21T03:06:03.794Z,13.29
2022-10-21T03:07:03.833Z,13.31
2022-10-21T03:08:03.765Z,13.16
2022-10-21T03:09:03.808Z,13.41
2022-10-21T03:10:03.766Z,13.39
2022-10-21T03:11:03.728Z,13.35
2022-10-21T03:12:03.715Z,13.27
2022-10-21T03:13:03.710Z,13.27
2022-10-21T03:14:03.690Z,13.29
2022-10-21T03:15:03.680Z,13.28
2022-10-21T03:16:03.658Z,13.35
2022-10-21T03:17:03.654Z,13.36
2022-10-21T03:18:03.633Z,13.39
2022-10-21T03:19:03.625Z,13.32
2022-10-21T03:20:03.611Z,13.38
2022-10-21T03:21:03.599Z,13.39
2022-10-21T03:22:03.582Z,13.47
2022-10-21T03:23:03.565Z,13.31
2022-10-21T03:24:05.683Z,13.46
2022-10-21T03:25:03.538Z,13.38
2022-10-21T03:26:03.549Z,13.39
2022-10-21T03:27:03.510Z,13.36
2022-10-21T03:28:03.504Z,13.39
2022-10-21T03:29:03.488Z,13.38
2022-10-21T03:30:03.464Z,13.36
2022-10-21T03:31:03.459Z,13.31
2022-10-21T03:32:03.436Z,13.39
2022-10-21T03:33:03.428Z,13.53
2022-10-21T03:34:03.410Z,13.35
2022-10-21T03:35:03.603Z,13.39
2022-10-21T03:36:03.384Z,13.36
2022-10-21T03:37:03.372Z,13.51
2022-10-21T03:38:03.357Z,13.46
2022-10-21T03:39:03.354Z,13.39
2022-10-21T03:40:04.047Z,13.53
2022-10-21T03:41:03.323Z,13.43
2022-10-21T03:42:03.326Z,13.41
2022-10-21T03:43:03.294Z,13.51
2022-10-21T03:44:03.279Z,13.53
2022-10-21T03:45:03.267Z,13.54
2022-10-21T03:46:03.250Z,13.53
2022-10-21T03:47:03.235Z,13.54
2022-10-21T03:48:03.220Z,13.55
2022-10-21T03:49:05.560Z,13.38
2022-10-21T03:50:05.420Z,13.47
2022-10-21T03:51:03.178Z,13.51
2022-10-21T03:52:03.169Z,13.43
2022-10-21T03:53:13.462Z,13.47
2022-10-21T03:54:04.163Z,13.35
2022-10-21T03:55:03.130Z,13.39
2022-10-21T03:56:03.109Z,13.32
2022-10-21T03:57:03.101Z,13.31
2022-10-21T03:58:03.107Z,13.32
2022-10-21T03:59:03.078Z,13.24
2022-10-21T04:00:03.139Z,13.35
2022-10-21T04:01:03.048Z,13.25
2022-10-21T04:02:03.140Z,13.25
2022-10-21T04:03:03.022Z,13.27
2022-10-21T04:04:03.005Z,13.31
2022-10-21T04:05:03.002Z,13.28
2022-10-21T04:06:02.985Z,13.24
2022-10-21T04:07:02.965Z,13.35
2022-10-21T04:08:02.943Z,13.21
2022-10-21T04:09:03.064Z,13.25
2022-10-21T04:10:02.927Z,13.31
2022-10-21T04:11:02.970Z,13.32
2022-10-21T04:12:02.893Z,13.21
2022-10-21T04:13:02.885Z,13.22
2022-10-21T04:14:02.889Z,13.29
2022-10-21T04:15:02.850Z,13.36
2022-10-21T04:16:02.840Z,13.32
2022-10-21T04:17:07.731Z,13.28
2022-10-21T04:18:02.811Z,13.35
2022-10-21T04:19:02.800Z,13.29
2022-10-21T04:20:02.786Z,13.41
2022-10-21T04:21:02.823Z,13.22
2022-10-21T04:22:02.767Z,13.36
2022-10-21T04:23:02.751Z,13.32
2022-10-21T04:24:02.789Z,13.31
2022-10-21T04:25:04.758Z,13.36
2022-10-21T04:26:02.706Z,13.39
2022-10-21T04:27:02.696Z,13.43
2022-10-21T04:28:02.678Z,13.39
2022-10-21T04:29:02.678Z,13.39
2022-10-21T04:30:02.675Z,13.39
2022-10-21T04:31:02.634Z,13.38
2022-10-21T04:32:02.618Z,13.36
2022-10-21T04:33:02.620Z,13.43
2022-10-21T04:34:02.597Z,13.46
2022-10-21T04:35:02.580Z,13.44
2022-10-21T04:36:02.564Z,13.57
2022-10-21T04:37:04.986Z,13.54
2022-10-21T04:38:02.545Z,13.55
2022-10-21T04:39:02.526Z,13.50
2022-10-21T04:40:02.863Z,13.53
2022-10-21T04:41:02.501Z,13.46
2022-10-21T04:42:02.486Z,13.55
2022-10-21T04:43:02.472Z,13.54
2022-10-21T04:44:02.455Z,13.54
2022-10-21T04:45:02.441Z,13.53
2022-10-21T04:46:02.452Z,13.54
2022-10-21T04:47:02.417Z,13.53
2022-10-21T04:48:02.408Z,13.57
2022-10-21T04:49:02.387Z,13.47
2022-10-21T04:50:02.376Z,13.50
2022-10-21T04:51:02.359Z,13.63
2022-10-21T04:52:02.344Z,13.50
2022-10-21T04:53:02.337Z,13.57
2022-10-21T04:54:02.322Z,13.54
2022-10-21T04:55:02.314Z,13.54
2022-10-21T04:56:02.290Z,13.46
2022-10-21T04:57:02.278Z,13.57
2022-10-21T04:58:02.265Z,13.47
2022-10-21T04:59:02.259Z,13.53
2022-10-21T05:00:02.245Z,13.50
2022-10-21T05:01:02.331Z,13.61
2022-10-21T05:03:02.198Z,13.51
2022-10-21T05:04:02.187Z,13.55
2022-10-21T05:05:02.171Z,13.54
2022-10-21T05:06:02.165Z,13.46
2022-10-21T05:07:02.156Z,13.50
2022-10-21T05:08:02.131Z,13.50
2022-10-21T05:09:02.219Z,13.54
2022-10-21T05:10:02.102Z,13.50
2022-10-21T05:11:02.087Z,13.55
2022-10-21T05:12:02.073Z,13.57
2022-10-21T05:13:02.062Z,13.48
2022-10-21T05:14:02.047Z,13.46
2022-10-21T05:15:02.038Z,13.59
2022-10-21T05:16:02.023Z,13.54
2022-10-21T05:17:02.017Z,13.51
2022-10-21T05:18:02.014Z,13.50
2022-10-21T05:19:01.983Z,13.59
2022-10-21T05:20:01.970Z,13.54
2022-10-21T05:21:01.962Z,13.62
2022-10-21T05:22:01.944Z,13.50
2022-10-21T05:23:01.932Z,13.53
2022-10-21T05:24:01.917Z,13.53
2022-10-21T05:25:01.899Z,13.57
2022-10-21T05:26:01.888Z,13.51
2022-10-21T05:27:01.881Z,13.47
2022-10-21T05:28:01.867Z,13.55
2022-10-21T05:29:01.852Z,13.61
2022-10-21T05:30:01.829Z,13.47
2022-10-21T05:31:01.826Z,13.53
2022-10-21T05:32:01.802Z,13.53
2022-10-21T05:33:01.807Z,13.57
2022-10-21T05:34:01.804Z,13.50
2022-10-21T05:35:01.775Z,13.47
2022-10-21T05:36:01.757Z,13.44
2022-10-21T05:37:01.817Z,13.50
2022-10-21T05:38:01.725Z,13.48
2022-10-21T05:39:01.716Z,13.61
2022-10-21T05:40:01.703Z,13.54
2022-10-21T05:41:01.688Z,13.55
2022-10-21T05:42:01.677Z,13.47
2022-10-21T05:43:01.666Z,13.53
2022-10-21T05:44:01.647Z,13.53
2022-10-21T05:45:01.847Z,13.48
2022-10-21T05:46:01.620Z,13.46
2022-10-21T05:47:01.603Z,13.48
2022-10-21T05:48:01.587Z,13.53
2022-10-21T05:49:01.586Z,13.62
2022-10-21T05:50:01.596Z,13.55
2022-10-21T05:51:01.560Z,13.47
2022-10-21T05:52:01.536Z,13.55
2022-10-21T05:53:01.539Z,13.55
2022-10-21T05:54:01.509Z,13.53
2022-10-21T05:55:01.505Z,13.53
2022-10-21T05:56:01.482Z,13.48
2022-10-21T05:57:01.473Z,13.59
2022-10-21T05:58:01.460Z,13.51
2022-10-21T05:59:01.446Z,13.57
2022-10-21T06:00:01.432Z,13.59
2022-10-21T06:01:01.483Z,13.57
2022-10-21T06:02:01.405Z,13.43
2022-10-21T06:03:01.390Z,13.55
2022-10-21T06:04:01.374Z,13.53
2022-10-21T06:05:01.371Z,13.53
2022-10-21T06:06:01.379Z,13.59
2022-10-21T06:07:01.353Z,13.44
2022-10-21T06:08:01.324Z,13.53
2022-10-21T06:09:01.392Z,13.53
2022-10-21T06:10:01.294Z,13.61
2022-10-21T06:11:01.286Z,13.53
2022-10-21T06:12:01.267Z,13.62
2022-10-21T06:13:01.261Z,13.53
2022-10-21T06:14:01.244Z,13.55
2022-10-21T06:15:01.233Z,13.55
2022-10-21T06:16:01.292Z,13.57
2022-10-21T06:17:01.205Z,13.47
2022-10-21T06:18:01.188Z,13.59
2022-10-21T06:19:01.182Z,13.53
2022-10-21T06:20:01.164Z,13.51
2022-10-21T06:21:01.153Z,13.61
2022-10-21T06:22:01.155Z,13.54
2022-10-21T06:23:01.123Z,13.57
2022-10-21T06:24:01.109Z,13.62
2022-10-21T06:25:01.097Z,13.62
2022-10-21T06:26:01.086Z,13.65
2022-10-21T06:27:01.075Z,13.51
2022-10-21T06:28:01.058Z,13.65
2022-10-21T06:29:01.042Z,13.59
2022-10-21T06:30:01.031Z,13.62
2022-10-21T06:31:01.021Z,13.62
2022-10-21T06:32:01.005Z,13.62
2022-10-21T06:33:00.999Z,13.65
2022-10-21T06:34:00.980Z,13.71
2022-10-21T06:35:00.964Z,13.73
2022-10-21T06:36:00.959Z,13.71
2022-10-21T06:37:00.938Z,13.75
2022-10-21T06:38:01.062Z,13.66
2022-10-21T06:39:00.909Z,13.65
2022-10-21T06:40:00.891Z,13.55
2022-10-21T06:41:00.886Z,13.69
2022-10-21T06:42:00.863Z,13.66
2022-10-21T06:43:00.853Z,13.68
2022-10-21T06:44:00.835Z,13.66
2022-10-21T06:45:00.828Z,13.69
2022-10-21T06:46:00.812Z,13.79
2022-10-21T06:47:00.799Z,13.76
2022-10-21T06:48:00.782Z,13.73
2022-10-21T06:49:00.769Z,13.71
2022-10-21T06:50:00.959Z,13.73
2022-10-21T06:51:00.744Z,13.79
2022-10-21T06:52:00.735Z,13.71
2022-10-21T06:53:00.716Z,13.75
2022-10-21T06:54:00.725Z,13.76
2022-10-21T06:55:00.685Z,13.86
2022-10-21T06:56:00.672Z,13.81
2022-10-21T06:57:00.662Z,13.79
2022-10-21T06:58:00.654Z,13.76
2022-10-21T06:59:00.635Z,13.83
2022-10-21T07:00:00.615Z,13.79
2022-10-21T07:01:00.608Z,13.87
2022-10-21T07:02:01.269Z,13.81
2022-10-21T07:03:00.583Z,13.69
2022-10-21T07:04:00.569Z,13.81
2022-10-21T07:05:00.555Z,13.79
2022-10-21T07:06:00.534Z,13.83
2022-10-21T07:07:00.528Z,13.73
2022-10-21T07:08:00.503Z,13.75
2022-10-21T07:09:00.607Z,13.72
2022-10-21T07:10:00.509Z,13.76
2022-10-21T07:11:00.470Z,13.86
2022-10-21T07:12:00.458Z,13.79
2022-10-21T07:13:00.443Z,13.75
2022-10-21T07:14:00.432Z,13.84
2022-10-21T07:15:00.415Z,13.84
2022-10-21T07:16:00.402Z,13.87
2022-10-21T07:17:00.387Z,13.90
2022-10-21T07:18:00.374Z,13.84
2022-10-21T07:19:00.356Z,13.90
2022-10-21T07:20:00.346Z,13.86
2022-10-21T07:21:00.330Z,13.83
2022-10-21T07:22:00.314Z,13.88
2022-10-21T07:23:00.310Z,13.96
2022-10-21T07:24:00.296Z,13.86
2022-10-21T07:26:00.282Z,13.94
2022-10-21T07:27:00.248Z,13.88
2022-10-21T07:28:00.238Z,13.88
2022-10-21T07:29:00.222Z,13.96
2022-10-21T07:30:00.209Z,13.86
2022-10-21T07:31:00.189Z,13.90
2022-10-21T07:32:00.182Z,13.94
2022-10-21T07:33:00.237Z,13.86
2022-10-21T07:34:00.244Z,13.83
2022-10-21T07:35:00.201Z,13.91
2022-10-21T07:36:00.131Z,13.94
2022-10-21T07:37:00.112Z,13.88
2022-10-21T07:38:00.095Z,13.88
2022-10-21T07:39:00.110Z,13.96
2022-10-21T07:40:00.079Z,13.98
2022-10-21T07:41:00.056Z,14.08
2022-10-21T07:42:00.072Z,14.06
2022-10-21T07:43:00.157Z,14.06
2022-10-21T07:44:00.012Z,14.06
2022-10-21T07:45:00.001Z,14.06
2022-10-21T07:46:03.047Z,14.11
2022-10-21T07:47:00.994Z,14.08
2022-10-21T07:47:59.960Z,14.21
2022-10-21T07:48:59.948Z,14.19
2022-10-21T07:49:59.934Z,14.20
2022-10-21T07:50:59.918Z,14.31
2022-10-21T07:51:59.907Z,14.20
2022-10-21T07:53:11.033Z,14.17
2022-10-21T07:54:00.902Z,14.27
2022-10-21T07:55:00.208Z,14.20
2022-10-21T07:55:59.854Z,14.23
2022-10-21T07:56:59.832Z,14.21
2022-10-21T07:57:59.841Z,14.30
2022-10-21T07:58:59.808Z,14.30
2022-10-21T07:59:59.797Z,14.29
2022-10-21T08:00:59.940Z,14.31
2022-10-21T08:01:59.766Z,14.34
2022-10-21T08:02:59.747Z,14.39
2022-10-21T08:03:59.743Z,14.36
2022-10-21T08:04:59.730Z,14.44
2022-10-21T08:05:59.712Z,14.35
2022-10-21T08:06:59.693Z,14.53
2022-10-21T08:07:59.683Z,14.46
2022-10-21T08:08:59.779Z,14.42
2022-10-21T08:09:59.661Z,14.48
2022-10-21T08:10:59.646Z,14.48
2022-10-21T08:11:59.633Z,14.45
2022-10-21T08:12:59.613Z,14.56
2022-10-21T08:13:59.623Z,14.45
2022-10-21T08:14:59.591Z,14.53
2022-10-21T08:15:59.575Z,14.69
2022-10-21T08:16:59.559Z,14.61
2022-10-21T08:17:59.550Z,14.72
2022-10-21T08:18:59.534Z,14.64
2022-10-21T08:19:59.523Z,14.63
2022-10-21T08:20:59.509Z,14.69
2022-10-21T08:21:59.499Z,14.66
2022-10-21T08:22:59.474Z,14.72
2022-10-21T08:23:59.477Z,14.78
2022-10-21T08:24:59.448Z,14.80
2022-10-21T08:25:59.439Z,14.74
2022-10-21T08:26:59.426Z,14.79
2022-10-21T08:27:59.410Z,14.85
2022-10-21T08:28:59.400Z,14.82
2022-10-21T08:29:59.410Z,14.83
2022-10-21T08:30:59.370Z,14.72
2022-10-21T08:31:59.365Z,14.83
2022-10-21T08:32:59.346Z,14.93
2022-10-21T08:33:59.331Z,14.94
2022-10-21T08:34:59.318Z,14.94
2022-10-21T08:35:59.311Z,14.86
2022-10-21T08:36:59.290Z,14.90
2022-10-21T08:37:59.428Z,14.83
2022-10-21T08:38:59.259Z,14.85
2022-10-21T08:39:59.253Z,14.86
2022-10-21T08:40:59.232Z,14.87
2022-10-21T08:41:59.230Z,14.85
2022-10-21T08:42:59.212Z,14.91
2022-10-21T08:43:59.198Z,14.94
2022-10-21T08:44:59.178Z,14.91
2022-10-21T08:45:59.206Z,14.87
2022-10-21T08:46:59.216Z,14.95
2022-10-21T08:47:59.137Z,14.87
2022-10-21T08:48:59.128Z,15.01
2022-10-21T08:49:59.114Z,15.05
2022-10-21T08:50:59.095Z,15.00
2022-10-21T08:51:59.090Z,15.07
2022-10-21T08:52:59.068Z,15.12
2022-10-21T08:53:59.064Z,15.13
2022-10-21T08:54:59.045Z,15.25
2022-10-21T08:55:59.031Z,15.38
2022-10-21T08:56:59.021Z,15.38
2022-10-21T08:57:59.019Z,15.31
2022-10-21T08:58:59.042Z,15.27
2022-10-21T08:59:59.077Z,15.30
2022-10-21T09:00:58.983Z,15.25
2022-10-21T09:01:58.984Z,15.25
2022-10-21T09:02:59.026Z,15.35
2022-10-21T09:03:58.928Z,15.35
2022-10-21T09:04:58.909Z,15.27
2022-10-21T09:05:58.903Z,15.28
2022-10-21T09:06:58.883Z,15.35
2022-10-21T09:07:58.873Z,15.40
2022-10-21T09:08:58.943Z,15.28
2022-10-21T09:09:58.840Z,15.44
2022-10-21T09:10:58.874Z,15.41
2022-10-21T09:11:58.820Z,15.23
2022-10-21T09:12:58.797Z,15.30
2022-10-21T09:13:58.791Z,15.34
2022-10-21T09:14:58.771Z,15.23
2022-10-21T09:15:58.760Z,15.34
2022-10-21T09:16:58.750Z,15.31
2022-10-21T09:17:58.763Z,15.41
2022-10-21T09:18:58.719Z,15.31
2022-10-21T09:19:58.720Z,15.40
2022-10-21T09:21:01.807Z,15.35
2022-10-21T09:22:10.849Z,15.51
2022-10-21T09:22:59.686Z,15.52
2022-10-21T09:23:58.650Z,15.49
2022-10-21T09:24:58.639Z,15.49
2022-10-21T09:25:58.623Z,15.60
2022-10-21T09:26:58.618Z,15.62
2022-10-21T09:27:59.027Z,15.66
2022-10-21T09:28:58.618Z,15.66
2022-10-21T09:29:58.615Z,15.66
2022-10-21T09:30:58.591Z,15.68
2022-10-21T09:32:02.215Z,15.66
2022-10-21T09:32:58.559Z,15.76
2022-10-21T09:33:58.570Z,15.67
2022-10-21T09:34:58.519Z,15.74
2022-10-21T09:35:58.548Z,15.76
2022-10-21T09:36:58.475Z,15.80
2022-10-21T09:37:58.464Z,15.86
2022-10-21T09:38:58.449Z,16.01
2022-10-21T09:39:58.436Z,15.91
2022-10-21T09:40:58.418Z,15.93
2022-10-21T09:42:00.156Z,15.92
2022-10-21T09:42:58.394Z,15.91
2022-10-21T09:43:58.386Z,16.04
2022-10-21T09:44:58.371Z,16.10
2022-10-21T09:45:58.358Z,16.14
2022-10-21T09:46:58.336Z,16.18
2022-10-21T09:47:58.323Z,16.08
2022-10-21T09:50:13.814Z,16.14
2022-10-21T09:50:59.305Z,16.25
2022-10-21T09:51:58.269Z,16.26
2022-10-21T09:52:58.263Z,16.13
2022-10-21T09:53:58.254Z,16.23
2022-10-21T09:54:58.282Z,16.18
2022-10-21T09:55:58.223Z,16.29
2022-10-21T09:56:58.201Z,16.37
2022-10-21T09:57:58.197Z,16.40
2022-10-21T09:59:01.241Z,16.41
2022-10-21T09:59:58.320Z,16.37
2022-10-21T10:00:58.144Z,16.32
2022-10-21T10:01:58.171Z,16.32
2022-10-21T10:02:58.116Z,16.08
2022-10-21T10:03:58.113Z,16.13
2022-10-21T10:04:58.101Z,16.13
2022-10-21T10:05:58.108Z,16.13
2022-10-21T10:06:58.068Z,16.13
2022-10-21T10:07:58.060Z,16.29
2022-10-21T10:09:58.030Z,16.33
2022-10-21T10:10:58.018Z,16.29
2022-10-21T10:11:58.004Z,16.42
2022-10-21T10:12:57.995Z,16.45
2022-10-21T10:13:57.981Z,16.51
2022-10-21T10:14:57.966Z,16.48
2022-10-21T10:15:57.948Z,16.48
2022-10-21T10:16:57.934Z,16.50
2022-10-21T10:17:57.929Z,16.57
2022-10-21T10:18:57.908Z,16.45
2022-10-21T10:19:57.895Z,16.54
2022-10-21T10:20:57.878Z,16.60
2022-10-21T10:21:57.889Z,16.55
2022-10-21T10:22:57.849Z,16.66
2022-10-21T10:23:57.841Z,16.63
2022-10-21T10:24:57.829Z,16.65
2022-10-21T10:25:57.820Z,16.75
2022-10-21T10:26:57.800Z,16.70
2022-10-21T10:27:57.865Z,16.87
2022-10-21T10:28:57.769Z,16.85
2022-10-21T10:29:57.766Z,16.75
2022-10-21T10:30:57.745Z,16.77
2022-10-21T10:31:57.740Z,16.73
2022-10-21T10:32:57.711Z,16.70
2022-10-21T10:33:58.981Z,16.66
2022-10-21T10:34:57.686Z,16.75
2022-10-21T10:35:57.675Z,16.77
2022-10-21T10:36:57.659Z,16.77
2022-10-21T10:37:57.807Z,16.78
2022-10-21T10:38:57.635Z,16.67
2022-10-21T10:39:57.629Z,16.70
2022-10-21T10:40:58.567Z,16.70
2022-10-21T10:41:57.596Z,16.72
2022-10-21T10:42:57.582Z,16.60
2022-10-21T10:43:57.575Z,16.45
2022-10-21T10:44:57.558Z,16.44
2022-10-21T10:45:57.541Z,16.54
2022-10-21T10:46:57.525Z,16.52
2022-10-21T10:47:57.514Z,16.45
2022-10-21T10:48:57.496Z,16.57
2022-10-21T10:49:57.482Z,16.51
2022-10-21T10:50:57.476Z,16.52
2022-10-21T10:51:57.460Z,16.36
2022-10-21T10:52:57.445Z,16.45
2022-10-21T10:53:57.542Z,16.44
2022-10-21T10:54:57.415Z,16.33
2022-10-21T10:55:57.406Z,16.40
2022-10-21T10:56:57.395Z,16.37
2022-10-21T10:58:09.745Z,16.37
2022-10-21T10:58:58.385Z,16.45
2022-10-21T10:59:57.355Z,16.42
2022-10-21T11:00:57.493Z,16.40
2022-10-21T11:01:57.327Z,16.52
2022-10-21T11:02:57.307Z,16.62
2022-10-21T11:03:57.307Z,16.62
2022-10-21T11:04:57.683Z,16.63
2022-10-21T11:05:57.264Z,16.63
2022-10-21T11:06:57.256Z,16.63
2022-10-21T11:07:57.241Z,16.67
2022-10-21T11:08:57.290Z,16.60
2022-10-21T11:09:57.329Z,16.50
2022-10-21T11:10:57.235Z,16.60
2022-10-21T11:11:57.182Z,16.60
2022-10-21T11:12:57.231Z,16.50
2022-10-21T11:13:57.263Z,16.51
2022-10-21T11:14:57.138Z,16.42
2022-10-21T11:15:57.141Z,16.40
2022-10-21T11:17:00.441Z,16.55
2022-10-21T11:18:00.467Z,16.40
2022-10-21T11:18:58.115Z,16.37
2022-10-21T11:19:57.071Z,16.33
2022-10-21T11:20:57.060Z,16.30
2022-10-21T11:21:57.050Z,16.36
2022-10-21T11:22:57.097Z,16.48
2022-10-21T11:23:57.936Z,16.41
2022-10-21T11:24:57.005Z,16.45
2022-10-21T11:25:57.108Z,16.54
2022-10-21T11:26:56.973Z,16.63
2022-10-21T11:27:56.974Z,16.63
2022-10-21T11:28:56.945Z,16.78
2022-10-21T11:29:56.933Z,16.81
2022-10-21T11:30:56.920Z,16.90
2022-10-21T11:32:11.206Z,16.82
2022-10-21T11:32:57.990Z,16.82
2022-10-21T11:33:56.879Z,16.82
2022-10-21T11:34:56.870Z,16.87
2022-10-21T11:35:58.015Z,16.69
2022-10-21T11:36:56.847Z,16.66
2022-10-21T11:37:56.825Z,16.72
2022-10-21T11:38:56.815Z,16.84
2022-10-21T11:39:56.799Z,16.80
2022-10-21T11:40:56.788Z,16.82
2022-10-21T11:41:56.885Z,16.81
2022-10-21T11:42:56.820Z,16.98
2022-10-21T11:43:56.745Z,17.07
2022-10-21T11:44:56.732Z,16.87
2022-10-21T11:45:56.712Z,16.95
2022-10-21T11:46:56.705Z,17.03
2022-10-21T11:47:56.686Z,17.06
2022-10-21T11:48:56.686Z,17.06
2022-10-21T11:49:56.667Z,17.17
2022-10-21T11:50:56.654Z,17.17
2022-10-21T11:51:56.633Z,17.22
2022-10-21T11:52:56.694Z,17.15
2022-10-21T11:53:56.617Z,17.28
2022-10-21T11:55:08.860Z,17.27
2022-10-21T11:55:57.616Z,17.06
2022-10-21T11:56:56.574Z,17.15
2022-10-21T11:57:56.669Z,17.30
2022-10-21T11:58:56.542Z,17.28
2022-10-21T11:59:59.328Z,17.39
2022-10-21T12:00:56.516Z,17.35
2022-10-21T12:01:56.557Z,17.36
2022-10-21T12:02:56.494Z,17.33
2022-10-21T12:03:56.477Z,17.45
2022-10-21T12:04:56.468Z,17.53
2022-10-21T12:05:56.448Z,17.45
2022-10-21T12:06:56.439Z,17.43
2022-10-21T12:07:56.418Z,17.39
2022-10-21T12:08:56.409Z,17.33
2022-10-21T12:09:56.544Z,17.24
2022-10-21T12:10:56.379Z,17.22
2022-10-21T12:11:56.360Z,17.12
2022-10-21T12:12:56.363Z,17.15
2022-10-21T12:13:56.461Z,17.10
2022-10-21T12:14:56.332Z,17.14
2022-10-21T12:15:56.316Z,17.07
2022-10-21T12:16:56.309Z,17.14
2022-10-21T12:17:56.285Z,17.12
2022-10-21T12:18:56.283Z,17.12
2022-10-21T12:19:56.258Z,17.14
2022-10-21T12:20:56.249Z,17.12
2022-10-21T12:21:56.234Z,16.98
2022-10-21T12:22:56.219Z,17.03
2022-10-21T12:23:56.302Z,17.03
2022-10-21T12:24:56.200Z,17.07
2022-10-21T12:25:56.182Z,17.00
2022-10-21T12:26:56.162Z,17.15
2022-10-21T12:27:56.154Z,17.07
2022-10-21T12:28:56.146Z,17.06
2022-10-21T12:29:56.238Z,17.14
2022-10-21T12:30:56.115Z,16.99
2022-10-21T12:31:56.099Z,17.00
2022-10-21T12:32:56.086Z,17.06
2022-10-21T12:33:56.067Z,17.09
2022-10-21T12:34:56.062Z,17.15
2022-10-21T12:35:56.044Z,17.21
2022-10-21T12:36:56.028Z,17.07
2022-10-21T12:37:56.015Z,17.17
2022-10-21T12:38:56.007Z,17.28
2022-10-21T12:39:55.987Z,17.22
2022-10-21T12:40:55.983Z,17.35
2022-10-21T12:41:55.957Z,17.45
2022-10-21T12:42:55.956Z,17.38
2022-10-21T12:43:55.934Z,17.33
2022-10-21T12:44:55.920Z,17.36
2022-10-21T12:45:55.931Z,17.30
2022-10-21T12:46:55.892Z,17.35
2022-10-21T12:47:55.881Z,17.39
2022-10-21T12:48:55.873Z,17.42
2022-10-21T12:49:55.853Z,17.42
2022-10-21T12:50:55.847Z,17.36
2022-10-21T12:51:55.831Z,17.35
2022-10-21T12:52:55.818Z,17.30
2022-10-21T12:53:55.804Z,17.35
2022-10-21T12:54:55.826Z,17.39
2022-10-21T12:55:55.823Z,17.46
2022-10-21T12:56:55.765Z,17.51